createdAt,value
2022-08-27T00:01:22.001Z,4.53
2022-08-27T00:03:48.862Z,6.00
2022-08-27T00:06:17.511Z,6.30
2022-08-27T00:08:46.943Z,6.90
2022-08-27T00:11:14.471Z,6.70
2022-08-27T00:13:41.387Z,6.20
2022-08-27T00:16:09.991Z,6.33
2022-08-27T00:18:37.537Z,5.83
2022-08-27T00:21:05.065Z,6.50
2022-08-27T00:23:34.482Z,5.37
2022-08-27T00:26:01.117Z,6.33
2022-08-27T00:28:28.278Z,6.10
2022-08-27T00:30:58.045Z,7.03
2022-08-27T00:33:25.456Z,7.43
2022-08-27T00:35:52.890Z,6.90
2022-08-27T00:38:21.046Z,8.10
2022-08-27T00:40:48.205Z,6.50
2022-08-27T00:43:21.963Z,6.73
2022-08-27T00:45:48.722Z,6.60
2022-08-27T00:48:18.295Z,6.80
2022-08-27T00:50:50.483Z,7.03
2022-08-27T00:53:23.452Z,7.50
2022-08-27T00:55:55.607Z,7.10
2022-08-27T00:58:28.170Z,7.57
2022-08-27T01:00:55.721Z,7.70
2022-08-27T01:03:22.514Z,8.00
2022-08-27T01:05:50.138Z,8.80
2022-08-27T01:08:22.649Z,8.50
2022-08-27T01:10:50.960Z,7.63
2022-08-27T01:13:20.897Z,7.13
2022-08-27T01:16:08.595Z,7.70
2022-08-27T01:18:37.579Z,7.97
2022-08-27T01:21:10.659Z,7.30
2022-08-27T01:23:43.188Z,7.67
2022-08-27T01:26:13.580Z,7.40
2022-08-27T01:28:40.434Z,7.10
2022-08-27T01:31:09.287Z,6.37
2022-08-27T01:33:36.067Z,6.10
2022-08-27T01:36:03.537Z,7.30
2022-08-27T01:38:31.563Z,6.00
2022-08-27T01:41:01.959Z,6.30
2022-08-27T01:43:31.131Z,6.87
2022-08-27T01:45:57.735Z,6.30
2022-08-27T01:48:24.296Z,6.90
2022-08-27T01:50:50.857Z,6.60
2022-08-27T01:53:22.745Z,5.87
2022-08-27T01:55:50.502Z,6.23
2022-08-27T01:58:18.630Z,5.93
2022-08-27T02:00:47.771Z,5.63
2022-08-27T02:03:19.110Z,5.70
2022-08-27T02:05:47.568Z,5.70
2022-08-27T02:08:17.861Z,4.37
2022-08-27T02:10:45.615Z,5.50
2022-08-27T02:13:13.350Z,5.30
2022-08-27T02:15:42.181Z,5.07
2022-08-27T02:18:10.178Z,4.63
2022-08-27T02:20:36.940Z,5.30
2022-08-27T02:23:04.763Z,4.00
2022-08-27T02:25:31.423Z,5.23
2022-08-27T02:28:00.199Z,5.00
2022-08-27T02:30:28.313Z,4.40
2022-08-27T02:32:54.826Z,3.67
2022-08-27T02:35:23.520Z,4.67
2022-08-27T02:37:50.453Z,4.10
2022-08-27T02:40:20.031Z,3.70
2022-08-27T02:42:47.090Z,4.37
2022-08-27T02:45:15.061Z,3.93
2022-08-27T02:47:41.951Z,3.60
2022-08-27T02:50:09.408Z,4.10
2022-08-27T02:52:36.578Z,3.93
2022-08-27T02:55:05.570Z,3.43
2022-08-27T02:57:36.487Z,4.40
2022-08-27T03:00:10.472Z,4.50
2022-08-27T03:02:37.189Z,3.93
2022-08-27T03:05:06.204Z,5.00
2022-08-27T03:07:32.765Z,3.97
2022-08-27T03:09:59.506Z,4.77
2022-08-27T03:12:26.723Z,4.20
2022-08-27T03:14:53.274Z,4.07
2022-08-27T03:17:38.429Z,5.00
2022-08-27T03:20:06.727Z,4.30
2022-08-27T03:22:33.245Z,5.30
2022-08-27T03:25:02.505Z,4.50
2022-08-27T03:27:29.521Z,4.30
2022-08-27T03:29:57.843Z,5.13
2022-08-27T03:32:27.589Z,4.43
2022-08-27T03:34:58.305Z,4.80
2022-08-27T03:37:25.384Z,4.53
2022-08-27T03:39:52.236Z,4.50
2022-08-27T03:42:18.881Z,4.67
2022-08-27T03:44:45.502Z,4.87
2022-08-27T03:47:12.057Z,5.10
2022-08-27T03:49:38.996Z,5.90
2022-08-27T03:52:05.701Z,6.57
2022-08-27T03:54:34.861Z,5.83
2022-08-27T03:57:01.993Z,6.23
2022-08-27T03:59:28.565Z,6.83
2022-08-27T04:01:55.206Z,6.30
2022-08-27T04:04:23.708Z,6.03
2022-08-27T04:06:50.688Z,6.20
2022-08-27T04:09:17.791Z,5.27
2022-08-27T04:11:44.959Z,6.17
2022-08-27T04:14:19.849Z,6.50
2022-08-27T04:16:54.987Z,6.53
2022-08-27T04:19:26.872Z,5.33
2022-08-27T04:21:54.061Z,5.50
2022-08-27T04:24:20.567Z,6.67
2022-08-27T04:26:47.630Z,5.83
2022-08-27T04:29:14.194Z,6.63
2022-08-27T04:31:40.825Z,6.03
2022-08-27T04:34:07.788Z,5.93
2022-08-27T04:36:34.625Z,5.70
2022-08-27T04:39:01.347Z,6.10
2022-08-27T04:41:28.210Z,5.70
2022-08-27T04:43:56.961Z,6.03
2022-08-27T04:46:32.367Z,5.47
2022-08-27T04:49:01.530Z,5.40
2022-08-27T04:51:29.044Z,5.10
2022-08-27T04:53:56.613Z,5.63
2022-08-27T04:56:26.483Z,5.90
2022-08-27T04:58:53.168Z,5.63
2022-08-27T05:01:23.562Z,5.67
2022-08-27T05:03:50.155Z,5.80
2022-08-27T05:06:17.458Z,6.20
2022-08-27T05:08:44.456Z,5.80
2022-08-27T05:11:15.000Z,5.33
2022-08-27T05:13:43.438Z,4.83
2022-08-27T05:16:16.244Z,5.23
2022-08-27T05:18:48.251Z,5.33
2022-08-27T05:21:32.420Z,5.60
2022-08-27T05:24:01.121Z,6.00
2022-08-27T05:26:28.925Z,5.30
2022-08-27T05:28:55.688Z,5.07
2022-08-27T05:31:22.637Z,6.17
2022-08-27T05:33:49.535Z,6.30
2022-08-27T05:36:20.511Z,6.33
2022-08-27T05:38:49.272Z,5.90
2022-08-27T05:41:19.280Z,6.23
2022-08-27T05:43:49.832Z,5.83
2022-08-27T05:46:20.223Z,5.80
2022-08-27T05:48:47.225Z,6.17
2022-08-27T05:51:22.557Z,5.93
2022-08-27T05:54:08.470Z,5.87
2022-08-27T05:56:37.048Z,5.33
2022-08-27T05:59:22.740Z,5.80
2022-08-27T06:01:51.690Z,5.90
2022-08-27T06:04:20.434Z,5.00
2022-08-27T06:06:47.896Z,5.10
2022-08-27T06:09:17.174Z,5.33
2022-08-27T06:11:44.410Z,5.20
2022-08-27T06:14:11.142Z,4.73
2022-08-27T06:16:38.569Z,5.60
2022-08-27T06:19:06.389Z,5.40
2022-08-27T06:21:33.783Z,5.00
2022-08-27T06:24:00.723Z,5.27
2022-08-27T06:26:27.409Z,5.40
2022-08-27T06:28:54.500Z,5.73
2022-08-27T06:31:25.550Z,5.07
2022-08-27T06:33:53.648Z,5.47
2022-08-27T06:36:25.584Z,5.43
2022-08-27T06:38:53.539Z,4.80
2022-08-27T06:41:24.147Z,4.77
2022-08-27T06:43:51.226Z,4.47
2022-08-27T06:46:20.090Z,4.03
2022-08-27T06:48:47.852Z,3.80
2022-08-27T06:51:18.531Z,3.53
2022-08-27T06:53:47.246Z,3.33
2022-08-27T06:56:17.539Z,2.93
2022-08-27T06:58:44.993Z,3.60
2022-08-27T07:01:40.092Z,2.67
2022-08-27T07:04:09.434Z,3.67
2022-08-27T07:06:37.175Z,3.20
2022-08-27T07:09:04.535Z,3.17
2022-08-27T07:11:33.995Z,3.30
2022-08-27T07:14:00.984Z,2.53
2022-08-27T07:16:29.078Z,2.53
2022-08-27T07:18:59.440Z,2.97
2022-08-27T07:21:31.813Z,2.40
2022-08-27T07:23:59.797Z,2.60
2022-08-27T07:26:26.599Z,2.50
2022-08-27T07:28:53.512Z,2.80
2022-08-27T07:31:22.363Z,2.53
2022-08-27T07:33:53.179Z,3.07
2022-08-27T07:36:21.359Z,2.50
2022-08-27T07:38:56.823Z,2.70
2022-08-27T07:41:32.161Z,2.90
2022-08-27T07:44:19.407Z,2.80
2022-08-27T07:46:48.674Z,2.17
2022-08-27T07:49:19.794Z,1.87
2022-08-27T07:51:46.657Z,1.90
2022-08-27T07:54:13.618Z,2.10
2022-08-27T07:56:40.312Z,2.30
2022-08-27T07:59:07.228Z,2.53
2022-08-27T08:01:34.343Z,4.50
2022-08-27T08:04:00.903Z,2.40
2022-08-27T08:06:27.459Z,2.30
2022-08-27T08:08:54.022Z,2.10
2022-08-27T08:11:20.913Z,2.40
2022-08-27T08:13:47.508Z,2.57
2022-08-27T08:16:15.000Z,2.20
2022-08-27T08:18:42.113Z,2.80
2022-08-27T08:21:13.561Z,2.57
2022-08-27T08:23:40.697Z,2.60
2022-08-27T08:26:08.267Z,2.40
2022-08-27T08:28:34.843Z,2.27
2022-08-27T08:31:01.648Z,2.30
2022-08-27T08:33:28.595Z,2.00
2022-08-27T08:35:55.375Z,2.20
2022-08-27T08:38:22.072Z,2.33
2022-08-27T08:40:53.235Z,3.13
2022-08-27T08:43:39.187Z,2.00
2022-08-27T08:46:09.862Z,1.90
2022-08-27T08:48:38.267Z,2.30
2022-08-27T08:51:10.390Z,2.27
2022-08-27T08:53:52.882Z,2.40
2022-08-27T08:56:31.704Z,1.83
2022-08-27T08:59:02.901Z,1.87
2022-08-27T09:01:29.824Z,1.90
2022-08-27T09:03:59.176Z,2.20
2022-08-27T09:06:45.272Z,1.73
2022-08-27T09:09:23.959Z,2.33
2022-08-27T09:12:28.834Z,1.73
2022-08-27T09:14:59.345Z,1.70
2022-08-27T09:17:27.715Z,1.83
2022-08-27T09:19:56.046Z,1.80
2022-08-27T09:22:37.938Z,1.97
2022-08-27T09:25:11.631Z,2.00
2022-08-27T09:27:41.602Z,1.70
2022-08-27T09:30:11.724Z,2.23
2022-08-27T09:32:39.183Z,2.37
2022-08-27T09:35:11.196Z,2.00
2022-08-27T09:37:46.039Z,2.43
2022-08-27T09:40:23.693Z,1.47
2022-08-27T09:42:53.290Z,2.30
2022-08-27T09:45:26.751Z,2.03
2022-08-27T09:48:05.649Z,2.03
2022-08-27T09:50:43.890Z,2.00
2022-08-27T09:53:30.928Z,2.13
2022-08-27T09:56:01.674Z,1.80
2022-08-27T09:58:31.204Z,2.10
2022-08-27T10:01:21.474Z,2.20
2022-08-27T10:03:48.646Z,1.67
2022-08-27T10:06:27.194Z,1.80
2022-08-27T10:08:54.750Z,1.90
2022-08-27T10:11:44.733Z,2.00
2022-08-27T10:14:21.553Z,2.80
2022-08-27T10:17:15.751Z,3.57
2022-08-27T10:20:00.744Z,2.03
2022-08-27T10:22:31.872Z,2.20
2022-08-27T10:25:43.546Z,1.70
2022-08-27T10:28:22.701Z,2.97
2022-08-27T10:31:19.410Z,2.00
2022-08-27T10:34:12.332Z,1.90
2022-08-27T10:37:04.437Z,1.93
2022-08-27T10:39:37.170Z,1.57
2022-08-27T10:42:14.703Z,1.90
2022-08-27T10:44:57.962Z,1.90
2022-08-27T10:47:46.255Z,2.27
2022-08-27T10:50:24.643Z,1.90
2022-08-27T10:53:17.261Z,1.90
2022-08-27T10:55:51.745Z,2.50
2022-08-27T10:58:51.949Z,2.30
2022-08-27T11:01:37.752Z,2.30
2022-08-27T11:04:10.060Z,1.87
2022-08-27T11:06:44.550Z,2.00
2022-08-27T11:09:14.985Z,2.13
2022-08-27T11:12:18.411Z,2.10
2022-08-27T11:15:00.591Z,1.90
2022-08-27T11:17:39.709Z,2.50
2022-08-27T11:20:11.573Z,2.40
2022-08-27T11:22:42.762Z,2.23
2022-08-27T11:25:17.840Z,2.43
2022-08-27T11:27:45.651Z,2.53
2022-08-27T11:30:44.512Z,2.77
2022-08-27T11:33:26.582Z,1.80
2022-08-27T11:36:14.407Z,2.77
2022-08-27T11:38:44.183Z,2.70
2022-08-27T11:41:31.454Z,2.50
2022-08-27T11:44:14.110Z,2.50
2022-08-27T11:47:07.059Z,2.53
2022-08-27T11:49:57.559Z,2.87
2022-08-27T11:52:38.830Z,2.40
2022-08-27T11:55:24.851Z,2.00
2022-08-27T11:58:10.656Z,1.73
2022-08-27T12:00:42.190Z,2.40
2022-08-27T12:03:10.037Z,2.80
2022-08-27T12:05:41.265Z,2.43
2022-08-27T12:08:14.543Z,2.20
2022-08-27T12:10:58.434Z,2.40
2022-08-27T12:13:38.117Z,2.30
2022-08-27T12:16:16.345Z,2.10
2022-08-27T12:18:49.670Z,2.10
2022-08-27T12:21:19.495Z,2.00
2022-08-27T12:23:57.939Z,2.50
2022-08-27T12:26:34.404Z,2.27
2022-08-27T12:29:24.042Z,1.90
2022-08-27T12:32:00.711Z,2.20
2022-08-27T12:34:28.050Z,1.80
2022-08-27T12:36:56.229Z,2.93
2022-08-27T12:39:28.168Z,1.90
2022-08-27T12:41:55.752Z,2.37
2022-08-27T12:44:30.561Z,2.00
2022-08-27T12:47:10.488Z,2.30
2022-08-27T12:49:57.928Z,2.40
2022-08-27T12:52:47.734Z,2.50
2022-08-27T12:55:54.731Z,2.50
2022-08-27T12:58:34.079Z,2.73
2022-08-27T13:01:21.223Z,2.00
2022-08-27T13:03:50.146Z,2.20
2022-08-27T13:06:35.305Z,2.13
2022-08-27T13:09:05.910Z,2.10
2022-08-27T13:11:35.893Z,2.20
2022-08-27T13:14:12.135Z,2.53
2022-08-27T13:16:45.093Z,2.47
2022-08-27T13:19:20.065Z,2.97
2022-08-27T13:21:49.535Z,2.83
2022-08-27T13:24:20.936Z,1.80
2022-08-27T13:26:50.171Z,3.03
2022-08-27T13:29:16.885Z,2.50
2022-08-27T13:31:44.166Z,2.50
2022-08-27T13:34:19.093Z,2.63
2022-08-27T13:37:06.670Z,2.37
2022-08-27T13:39:36.037Z,1.67
2022-08-27T13:42:04.611Z,1.87
2022-08-27T13:44:34.552Z,2.00
2022-08-27T13:47:09.084Z,2.07
2022-08-27T13:49:40.260Z,2.40
2022-08-27T13:52:15.187Z,1.80
2022-08-27T13:54:47.033Z,2.27
2022-08-27T13:57:30.250Z,2.10
2022-08-27T14:00:18.552Z,2.20
2022-08-27T14:02:55.680Z,1.97
2022-08-27T14:05:25.529Z,2.30
2022-08-27T14:07:55.618Z,2.47
2022-08-27T14:10:33.201Z,1.90
2022-08-27T14:13:22.000Z,1.60
2022-08-27T14:15:51.361Z,2.30
2022-08-27T14:18:36.768Z,2.73
2022-08-27T14:21:09.294Z,2.30
2022-08-27T14:23:35.870Z,2.67
2022-08-27T14:26:02.810Z,2.07
2022-08-27T14:28:31.567Z,2.07
2022-08-27T14:30:58.449Z,2.27
2022-08-27T14:33:25.208Z,2.37
2022-08-27T14:35:51.777Z,2.90
2022-08-27T14:38:22.587Z,2.17
2022-08-27T14:40:51.934Z,2.33
2022-08-27T14:43:19.293Z,1.90
2022-08-27T14:45:46.855Z,1.83
2022-08-27T14:48:19.700Z,1.90
2022-08-27T14:50:47.090Z,2.60
2022-08-27T14:53:13.603Z,1.90
2022-08-27T14:55:40.181Z,2.13
2022-08-27T14:58:06.678Z,2.07
2022-08-27T15:00:33.305Z,1.93
2022-08-27T15:02:59.806Z,1.90
2022-08-27T15:05:26.567Z,1.50
2022-08-27T15:07:54.924Z,2.27
2022-08-27T15:10:21.490Z,2.20
2022-08-27T15:12:48.055Z,2.57
2022-08-27T15:15:14.991Z,1.73
2022-08-27T15:17:41.622Z,2.40
2022-08-27T15:20:16.967Z,2.43
2022-08-27T15:22:47.450Z,2.73
2022-08-27T15:25:15.577Z,2.03
2022-08-27T15:27:42.119Z,2.37
2022-08-27T15:30:12.276Z,2.37
2022-08-27T15:32:45.890Z,2.27
2022-08-27T15:35:15.750Z,2.10
2022-08-27T15:37:43.078Z,2.37
2022-08-27T15:40:11.268Z,2.30
2022-08-27T15:42:39.117Z,2.53
2022-08-27T15:45:06.911Z,2.57
2022-08-27T15:47:34.093Z,2.40
2022-08-27T15:50:00.642Z,2.30
2022-08-27T15:52:36.057Z,3.03
2022-08-27T15:55:14.567Z,2.57
2022-08-27T15:57:41.085Z,1.80
2022-08-27T16:00:08.764Z,2.10
2022-08-27T16:02:35.424Z,2.93
2022-08-27T16:05:02.064Z,2.30
2022-08-27T16:07:28.591Z,2.20
2022-08-27T16:09:55.506Z,2.63
2022-08-27T16:12:26.963Z,2.20
2022-08-27T16:14:54.916Z,2.60
2022-08-27T16:17:21.588Z,1.97
2022-08-27T16:19:48.185Z,1.70
2022-08-27T16:22:16.110Z,2.57
2022-08-27T16:24:42.720Z,2.23
2022-08-27T16:27:09.561Z,2.27
2022-08-27T16:29:36.629Z,2.90
2022-08-27T16:32:03.812Z,2.93
2022-08-27T16:34:31.056Z,7.27
2022-08-27T16:36:57.673Z,6.73
2022-08-27T16:39:24.182Z,8.00
2022-08-27T16:41:50.788Z,2.27
2022-08-27T16:44:17.979Z,3.13
2022-08-27T16:46:44.793Z,3.20
2022-08-27T16:49:30.530Z,2.90
2022-08-27T16:51:57.107Z,2.17
2022-08-27T16:54:23.721Z,2.40
2022-08-27T16:56:50.303Z,2.10
2022-08-27T16:59:16.867Z,2.10
2022-08-27T17:01:45.667Z,2.77
2022-08-27T17:04:19.352Z,2.53
2022-08-27T17:06:54.796Z,2.40
2022-08-27T17:09:22.669Z,2.27
2022-08-27T17:11:54.489Z,2.00
2022-08-27T17:14:21.167Z,2.07
2022-08-27T17:16:47.734Z,2.00
2022-08-27T17:19:17.011Z,2.23
2022-08-27T17:21:45.405Z,2.70
2022-08-27T17:24:13.118Z,2.50
2022-08-27T17:26:40.124Z,2.10
2022-08-27T17:29:06.736Z,2.40
2022-08-27T17:31:36.050Z,2.27
2022-08-27T17:34:04.590Z,2.10
2022-08-27T17:36:31.688Z,2.47
2022-08-27T17:38:59.956Z,3.20
2022-08-27T17:41:33.649Z,1.97
2022-08-27T17:44:03.987Z,2.50
2022-08-27T17:46:30.973Z,2.20
2022-08-27T17:48:57.951Z,2.40
2022-08-27T17:51:24.573Z,2.10
2022-08-27T17:53:58.468Z,2.63
2022-08-27T17:56:27.347Z,2.57
2022-08-27T17:58:54.469Z,3.00
2022-08-27T18:01:31.816Z,2.63
2022-08-27T18:03:59.246Z,2.20
2022-08-27T18:06:27.365Z,2.60
2022-08-27T18:08:54.184Z,2.37
2022-08-27T18:11:20.917Z,2.20
2022-08-27T18:13:52.295Z,2.73
2022-08-27T18:16:19.138Z,2.50
2022-08-27T18:18:45.910Z,2.93
2022-08-27T18:21:12.779Z,2.83
2022-08-27T18:23:40.083Z,2.97
2022-08-27T18:26:09.043Z,2.73
2022-08-27T18:28:35.613Z,2.80
2022-08-27T18:31:06.591Z,3.53
2022-08-27T18:33:33.643Z,2.60
2022-08-27T18:36:00.699Z,2.27
2022-08-27T18:38:27.783Z,2.73
2022-08-27T18:40:55.305Z,2.60
2022-08-27T18:43:25.576Z,2.30
2022-08-27T18:45:52.191Z,2.57
2022-08-27T18:48:22.122Z,2.87
2022-08-27T18:50:55.542Z,2.37
2022-08-27T18:53:22.142Z,2.07
2022-08-27T18:55:49.316Z,2.27
2022-08-27T18:58:16.563Z,2.23
2022-08-27T19:00:46.170Z,3.13
2022-08-27T19:03:18.042Z,4.10
2022-08-27T19:05:44.608Z,2.43
2022-08-27T19:08:13.363Z,2.30
2022-08-27T19:10:40.011Z,2.40
2022-08-27T19:13:06.651Z,3.10
2022-08-27T19:15:33.395Z,2.30
2022-08-27T19:18:03.069Z,2.50
2022-08-27T19:20:31.169Z,2.20
2022-08-27T19:22:59.308Z,2.33
2022-08-27T19:25:27.105Z,2.40
2022-08-27T19:27:53.730Z,3.03
2022-08-27T19:30:20.710Z,2.50
2022-08-27T19:32:47.563Z,2.40
2022-08-27T19:35:21.479Z,1.93
2022-08-27T19:37:52.718Z,2.23
2022-08-27T19:40:21.922Z,2.90
2022-08-27T19:42:48.797Z,2.60
2022-08-27T19:45:15.638Z,2.70
2022-08-27T19:47:50.461Z,2.63
2022-08-27T19:50:17.829Z,2.53
2022-08-27T19:52:44.545Z,2.83
2022-08-27T19:55:14.063Z,2.43
2022-08-27T19:57:41.744Z,2.50
2022-08-27T20:00:09.583Z,2.20
2022-08-27T20:02:36.680Z,2.67
2022-08-27T20:05:19.799Z,2.00
2022-08-27T20:07:48.644Z,2.27
2022-08-27T20:10:16.452Z,1.97
2022-08-27T20:12:43.512Z,2.57
2022-08-27T20:15:10.756Z,2.10
2022-08-27T20:17:37.358Z,2.20
2022-08-27T20:20:05.710Z,2.10
2022-08-27T20:22:32.287Z,2.10
2022-08-27T20:24:58.867Z,2.30
2022-08-27T20:27:25.409Z,1.97
2022-08-27T20:29:52.486Z,2.43
2022-08-27T20:32:20.321Z,2.80
2022-08-27T20:34:46.886Z,2.87
2022-08-27T20:37:13.542Z,2.60
2022-08-27T20:39:40.293Z,2.30
2022-08-27T20:42:06.911Z,2.60
2022-08-27T20:44:33.563Z,2.37
2022-08-27T20:47:01.137Z,2.40
2022-08-27T20:49:28.759Z,3.40
2022-08-27T20:52:03.065Z,2.90
2022-08-27T20:54:31.551Z,2.87
2022-08-27T20:56:58.378Z,2.53
2022-08-27T20:59:43.582Z,2.43
2022-08-27T21:02:12.279Z,2.40
2022-08-27T21:04:40.885Z,2.23
2022-08-27T21:07:07.446Z,2.70
2022-08-27T21:09:34.333Z,2.17
2022-08-27T21:12:01.541Z,2.53
2022-08-27T21:14:28.246Z,2.80
2022-08-27T21:16:56.967Z,2.33
2022-08-27T21:19:25.386Z,2.80
2022-08-27T21:21:52.510Z,1.90
2022-08-27T21:24:19.641Z,2.27
2022-08-27T21:26:47.194Z,1.90
2022-08-27T21:29:15.411Z,1.63
2022-08-27T21:31:42.179Z,2.10
2022-08-27T21:34:09.285Z,2.10
2022-08-27T21:36:38.920Z,2.23
2022-08-27T21:39:07.046Z,1.83
2022-08-27T21:41:37.274Z,2.37
2022-08-27T21:44:04.930Z,1.83
2022-08-27T21:46:33.237Z,1.73
2022-08-27T21:49:00.162Z,1.83
2022-08-27T21:51:26.946Z,1.83
2022-08-27T21:53:53.551Z,1.60
2022-08-27T21:56:20.152Z,1.97
2022-08-27T21:58:47.354Z,2.57
2022-08-27T22:01:14.045Z,2.23
2022-08-27T22:03:45.238Z,2.00
2022-08-27T22:06:14.892Z,1.87
2022-08-27T22:08:43.583Z,1.90
2022-08-27T22:11:10.991Z,1.83
2022-08-27T22:13:38.065Z,1.60
2022-08-27T22:16:05.088Z,1.80
2022-08-27T22:18:31.898Z,2.40
2022-08-27T22:20:59.081Z,1.93
2022-08-27T22:23:26.833Z,1.63
2022-08-27T22:25:53.430Z,2.00
2022-08-27T22:28:19.983Z,2.00
2022-08-27T22:30:47.043Z,1.60
2022-08-27T22:33:14.024Z,2.73
2022-08-27T22:35:40.778Z,2.13
2022-08-27T22:38:08.116Z,2.00
2022-08-27T22:40:35.892Z,2.27
2022-08-27T22:43:04.137Z,2.33
2022-08-27T22:45:30.863Z,2.37
2022-08-27T22:47:58.140Z,1.90
2022-08-27T22:50:24.754Z,2.17
2022-08-27T22:52:51.707Z,2.07
2022-08-27T22:55:21.523Z,1.83
2022-08-27T22:57:52.973Z,2.40
2022-08-27T23:00:26.363Z,2.10
2022-08-27T23:02:53.189Z,2.20
2022-08-27T23:05:20.398Z,2.67
2022-08-27T23:07:47.230Z,2.80
2022-08-27T23:10:19.425Z,2.40
2022-08-27T23:12:47.083Z,2.50
2022-08-27T23:15:16.430Z,2.83
2022-08-27T23:17:43.138Z,2.43
2022-08-27T23:20:10.572Z,3.17
2022-08-27T23:22:48.550Z,3.43
2022-08-27T23:25:36.111Z,3.53
2022-08-27T23:28:06.281Z,3.37
2022-08-27T23:30:33.843Z,3.67
2022-08-27T23:33:00.433Z,3.73
2022-08-27T23:35:27.441Z,3.30
2022-08-27T23:37:54.103Z,4.73
2022-08-27T23:40:21.307Z,3.77
2022-08-27T23:42:49.448Z,3.73
2022-08-27T23:45:20.854Z,4.30
2022-08-27T23:47:47.551Z,3.63
2022-08-27T23:50:14.772Z,3.70
2022-08-27T23:52:42.033Z,4.67
2022-08-27T23:55:09.585Z,4.90
2022-08-27T23:57:36.913Z,3.90
